Time;durP1;ratioP1;P1;durP2;ratioP2;P2;SDS_P1;SDS_P2;PMS_P1;PMS_P2;Temp;Humidity;BMP_temperature;BMP_pressure;BME280_temperature;BME280_humidity;BME280_pressure;Samples;Min_cycle;Max_cycle;Signal;HPM_P1;HPM_P2
2023/03/28 00:01:35;;;;;;;2.73;1.90;;;;;;;4.53;85.34;94077.41;5008444;28;20246;-71
2023/03/28 00:04:02;;;;;;;2.43;1.90;;;;;;;4.59;84.05;94087.03;4993862;28;20284;-72
2023/03/28 00:06:27;;;;;;;1.90;1.80;;;;;;;4.46;83.96;94107.63;5003623;28;20292;-71
2023/03/28 00:08:54;;;;;;;2.10;1.90;;;;;;;4.56;84.71;94108.16;5011349;28;20342;-71
2023/03/28 00:11:20;;;;;;;2.20;2.00;;;;;;;4.46;83.72;94118.00;5011641;28;20625;-72
2023/03/28 00:13:52;;;;;;;3.40;1.97;;;;;;;4.38;83.75;94141.41;5010840;28;20244;-72
2023/03/28 00:16:18;;;;;;;2.00;1.80;;;;;;;4.24;84.16;94139.63;5000805;28;20249;-72
2023/03/28 00:18:43;;;;;;;2.50;2.10;;;;;;;4.29;84.09;94151.06;4978260;28;20238;-71
2023/03/28 00:21:26;;;;;;;1.90;1.70;;;;;;;4.21;82.92;94155.50;4977505;28;20253;-72
2023/03/28 00:23:52;;;;;;;2.00;1.80;;;;;;;4.20;83.39;94161.69;4996567;28;20238;-72
2023/03/28 00:26:19;;;;;;;2.13;1.93;;;;;;;4.35;83.62;94173.63;4983904;28;20241;-72
2023/03/28 00:28:47;;;;;;;2.40;1.90;;;;;;;4.02;83.08;94175.78;5015378;28;20248;-72
2023/03/28 00:31:13;;;;;;;2.23;1.90;;;;;;;4.09;82.67;94184.47;5026936;28;20260;-70
2023/03/28 00:33:38;;;;;;;3.23;2.20;;;;;;;3.97;82.87;94183.28;5027261;28;20264;-70
2023/03/28 00:36:05;;;;;;;4.90;2.20;;;;;;;3.86;83.86;94188.91;5012690;28;20233;-72
2023/03/28 00:38:31;;;;;;;2.53;2.30;;;;;;;3.96;82.67;94202.38;5011795;28;20233;-71
2023/03/28 00:40:56;;;;;;;3.07;2.77;;;;;;;4.16;83.24;94204.44;5026615;28;20253;-71
2023/03/28 00:43:38;;;;;;;4.17;2.40;;;;;;;4.15;82.03;94200.25;4996028;28;20253;-71
2023/03/28 00:46:07;;;;;;;3.43;2.60;;;;;;;4.01;83.11;94207.81;5023630;28;20258;-71
2023/03/28 00:48:32;;;;;;;3.23;2.67;;;;;;;4.07;82.16;94209.72;5011409;28;20217;-72
2023/03/28 00:51:02;;;;;;;3.47;2.90;;;;;;;3.88;82.77;94206.84;4980061;28;20720;-72
2023/03/28 00:53:28;;;;;;;3.63;3.00;;;;;;;3.57;83.47;94213.91;5013295;28;20998;-70
2023/03/28 00:56:06;;;;;;;5.13;3.20;;;;;;;3.51;82.65;94222.38;5012818;28;20246;-71
2023/03/28 00:58:34;;;;;;;4.67;3.60;;;;;;;3.46;83.90;94230.66;5013621;28;20236;-72
2023/03/28 01:00:59;;;;;;;3.90;3.50;;;;;;;3.48;83.34;94226.13;5029482;28;20240;-70
2023/03/28 01:03:29;;;;;;;4.23;3.30;;;;;;;3.46;83.46;94248.75;5011953;28;20716;-71
2023/03/28 01:05:56;;;;;;;4.70;3.20;;;;;;;3.47;83.04;94234.03;4975042;28;20253;-71
2023/03/28 01:08:23;;;;;;;4.47;3.50;;;;;;;3.52;82.67;94242.06;5012286;28;20238;-71
2023/03/28 01:10:48;;;;;;;4.20;3.50;;;;;;;3.58;82.97;94243.97;5007538;28;20234;-71
2023/03/28 01:13:16;;;;;;;4.10;3.70;;;;;;;3.71;83.27;94257.94;4992799;28;20296;-71
2023/03/28 01:15:42;;;;;;;4.97;3.67;;;;;;;3.65;82.82;94253.47;5009833;28;20737;-72
2023/03/28 01:18:10;;;;;;;4.87;3.27;;;;;;;3.55;82.29;94265.81;5014353;28;20336;-71
2023/03/28 01:21:19;;;;;;;4.20;3.40;;;;;;;3.72;82.55;94275.06;4996494;28;20724;-72
2023/03/28 01:24:02;;;;;;;4.10;3.47;;;;;;;3.64;82.30;94277.72;5029838;28;20596;-71
2023/03/28 01:26:46;;;;;;;4.07;3.50;;;;;;;3.47;82.19;94276.22;5028363;28;20356;-72
2023/03/28 01:29:43;;;;;;;3.60;3.20;;;;;;;3.19;82.47;94288.03;5014211;28;20312;-71
2023/03/28 01:32:46;;;;;;;4.87;3.20;;;;;;;3.35;83.10;94282.75;5026662;28;20359;-71
2023/03/28 01:35:17;;;;;;;4.10;3.50;;;;;;;3.29;82.76;94294.63;5032723;28;20237;-72
2023/03/28 01:38:04;;;;;;;6.23;3.57;;;;;;;3.32;82.13;94291.66;5025920;28;20325;-72
2023/03/28 01:40:57;;;;;;;5.20;3.70;;;;;;;3.33;82.78;94289.88;5026707;28;20272;-71
2023/03/28 01:43:40;;;;;;;4.20;3.50;;;;;;;3.28;81.85;94297.34;5027581;28;20237;-70
2023/03/28 01:46:17;;;;;;;4.10;3.57;;;;;;;3.28;82.45;94312.88;5027062;28;20722;-71
2023/03/28 01:48:47;;;;;;;3.97;3.57;;;;;;;3.22;81.40;94301.44;5013993;28;20264;-71
2023/03/28 01:51:39;;;;;;;4.10;3.70;;;;;;;3.17;81.54;94308.09;5007822;28;20248;-71
2023/03/28 01:54:30;;;;;;;4.83;4.00;;;;;;;3.18;81.83;94312.25;5022484;28;20286;-71
2023/03/28 01:57:01;;;;;;;4.50;3.47;;;;;;;3.06;81.91;94304.09;5025397;28;20237;-71
2023/03/28 01:59:29;;;;;;;4.03;3.53;;;;;;;2.92;83.19;94309.16;5026965;28;20280;-70
2023/03/28 02:01:59;;;;;;;5.43;3.60;;;;;;;2.96;82.03;94310.47;5029103;28;20237;-72
2023/03/28 02:04:24;;;;;;;4.17;3.63;;;;;;;2.83;82.61;94318.72;5013012;28;20241;-71
2023/03/28 02:06:50;;;;;;;8.63;3.87;;;;;;;2.91;81.86;94315.31;5025845;28;20240;-72
2023/03/28 02:09:15;;;;;;;4.83;3.70;;;;;;;2.84;82.11;94309.22;5024428;28;20241;-71
2023/03/28 02:11:41;;;;;;;5.60;3.90;;;;;;;2.80;82.06;94318.25;5021656;28;20242;-69
2023/03/28 02:14:13;;;;;;;8.07;4.13;;;;;;;2.87;81.77;94319.19;4992423;28;20311;-72
2023/03/28 02:16:40;;;;;;;4.57;3.90;;;;;;;2.86;82.19;94309.84;5011085;28;20327;-71
2023/03/28 02:19:07;;;;;;;5.23;3.93;;;;;;;2.94;82.68;94307.25;5012666;28;20347;-71
2023/03/28 02:21:42;;;;;;;4.17;3.73;;;;;;;2.93;81.10;94311.59;5025550;28;20229;-72
2023/03/28 02:24:10;;;;;;;4.47;3.60;;;;;;;2.72;82.19;94313.94;5010792;28;20237;-72
2023/03/28 02:26:36;;;;;;;5.07;3.80;;;;;;;2.73;82.78;94289.69;5008454;28;20291;-70
2023/03/28 02:29:01;;;;;;;4.77;3.90;;;;;;;2.71;82.36;94315.72;4997930;28;20233;-71
2023/03/28 02:31:26;;;;;;;4.73;3.90;;;;;;;2.70;82.96;94310.69;4996103;28;20273;-71
2023/03/28 02:33:52;;;;;;;4.77;4.03;;;;;;;2.83;82.45;94307.59;5028104;28;20240;-71
2023/03/28 02:36:23;;;;;;;7.07;4.10;;;;;;;2.94;81.94;94294.31;5023146;28;20808;-72
2023/03/28 02:39:26;;;;;;;6.03;3.87;;;;;;;2.69;82.15;94303.94;5003629;28;20237;-70
2023/03/28 02:42:09;;;;;;;5.20;3.47;;;;;;;2.72;81.85;94321.69;5025023;28;20231;-71
2023/03/28 02:45:11;;;;;;;5.30;3.80;;;;;;;2.78;81.36;94296.94;5012160;28;20738;-71
2023/03/28 02:48:04;;;;;;;4.40;3.60;;;;;;;2.82;81.83;94313.75;5012080;28;20304;-70
2023/03/28 02:50:54;;;;;;;5.47;3.80;;;;;;;2.77;81.54;94313.44;5024202;28;20734;-72
2023/03/28 02:53:43;;;;;;;4.57;3.50;;;;;;;2.87;81.51;94320.00;5022982;28;20237;-71
2023/03/28 02:56:30;;;;;;;4.43;3.53;;;;;;;3.02;80.53;94320.91;5012825;28;20227;-71
2023/03/28 02:59:02;;;;;;;6.47;3.37;;;;;;;2.73;80.87;94312.94;4994977;28;20320;-71
2023/03/28 03:01:28;;;;;;;3.80;3.10;;;;;;;2.71;81.22;94320.06;4995617;28;20327;-71
2023/03/28 03:03:54;;;;;;;3.70;3.20;;;;;;;2.85;81.59;94303.06;4996743;28;20569;-70
2023/03/28 03:06:20;;;;;;;3.60;3.10;;;;;;;2.71;80.71;94323.47;5027851;28;20228;-70
2023/03/28 03:08:45;;;;;;;4.10;3.20;;;;;;;2.76;80.67;94328.13;5029011;28;20245;-72
2023/03/28 03:11:11;;;;;;;4.87;3.10;;;;;;;2.93;80.50;94321.13;5008218;28;20291;-71
2023/03/28 03:13:36;;;;;;;3.13;2.83;;;;;;;2.85;80.47;94328.88;5019278;28;20996;-70
2023/03/28 03:16:02;;;;;;;3.03;2.70;;;;;;;2.82;80.28;94324.88;4980964;28;20284;-71
2023/03/28 03:18:28;;;;;;;5.47;3.00;;;;;;;2.81;80.05;94330.22;5010503;28;20752;-71
2023/03/28 03:20:53;;;;;;;3.37;2.87;;;;;;;2.60;80.14;94321.22;4997297;28;20264;-71
2023/03/28 03:23:19;;;;;;;3.00;2.70;;;;;;;2.73;80.54;94324.09;4988071;28;20264;-70
2023/03/28 03:25:45;;;;;;;4.63;2.70;;;;;;;2.64;79.67;94325.09;4978624;28;20987;-71
2023/03/28 03:28:10;;;;;;;3.20;2.53;;;;;;;2.76;79.57;94337.66;4996118;28;20700;-71
2023/03/28 03:30:36;;;;;;;2.60;2.40;;;;;;;2.64;78.68;94335.44;4969607;28;20261;-72
2023/03/28 03:33:01;;;;;;;4.73;2.30;;;;;;;2.54;77.96;94345.13;4980258;28;20244;-72
2023/03/28 03:35:32;;;;;;;3.00;2.40;;;;;;;2.45;77.79;94347.91;5005401;28;20359;-70
2023/03/28 03:37:58;;;;;;;2.70;2.13;;;;;;;2.37;76.98;94355.66;5028564;28;20237;-72
2023/03/28 03:40:24;;;;;;;3.77;2.20;;;;;;;2.37;78.02;94358.22;5018194;28;20245;-71
2023/03/28 03:42:50;;;;;;;3.00;2.30;;;;;;;2.52;77.72;94356.59;4993869;28;20230;-71
2023/03/28 03:45:15;;;;;;;3.17;2.47;;;;;;;2.52;77.39;94362.56;5009452;28;20245;-72
2023/03/28 03:47:41;;;;;;;2.23;2.03;;;;;;;2.43;77.42;94386.81;4985346;28;20237;-71
2023/03/28 03:50:08;;;;;;;2.87;2.23;;;;;;;2.38;77.30;94391.66;5026751;28;20236;-70
2023/03/28 03:52:33;;;;;;;3.13;2.30;;;;;;;2.45;77.27;94382.28;5023377;28;22398;-71
2023/03/28 03:54:59;;;;;;;3.07;2.20;;;;;;;2.40;77.34;94397.44;4994126;28;20237;-70
2023/03/28 03:57:24;;;;;;;2.97;2.40;;;;;;;2.56;76.35;94387.09;5024268;28;20291;-69
2023/03/28 03:59:51;;;;;;;3.17;2.20;;;;;;;2.52;76.16;94387.59;4988901;28;20241;-71
2023/03/28 04:02:16;;;;;;;10.17;3.03;;;;;;;2.46;75.93;94383.09;5038300;28;20267;-70
2023/03/28 04:04:44;;;;;;;2.60;2.30;;;;;;;2.43;76.51;94412.63;5007156;28;20715;-72
2023/03/28 04:07:11;;;;;;;2.50;2.23;;;;;;;2.39;76.23;94408.75;5021902;28;20229;-71
2023/03/28 04:09:36;;;;;;;2.40;2.20;;;;;;;2.25;76.55;94406.00;4993704;28;20317;-70
2023/03/28 04:12:02;;;;;;;2.70;2.40;;;;;;;2.26;76.79;94418.75;5009960;28;20912;-71
2023/03/28 04:14:27;;;;;;;3.13;2.30;;;;;;;2.16;76.29;94431.00;5003776;28;20324;-68
2023/03/28 04:16:53;;;;;;;2.90;2.40;;;;;;;2.31;76.84;94436.34;4971286;28;20348;-70
2023/03/28 04:19:19;;;;;;;2.90;2.60;;;;;;;2.22;76.49;94421.81;5021545;28;20233;-72
2023/03/28 04:21:46;;;;;;;3.17;2.70;;;;;;;2.44;76.74;94427.13;4992143;28;20717;-72
2023/03/28 04:24:14;;;;;;;3.87;2.60;;;;;;;2.36;76.10;94440.06;4994020;28;21387;-71
2023/03/28 04:26:40;;;;;;;2.93;2.63;;;;;;;2.40;76.76;94440.53;5026650;28;20230;-71
2023/03/28 04:29:06;;;;;;;4.53;2.80;;;;;;;2.56;76.11;94441.34;4994252;28;20307;-70
2023/03/28 04:31:34;;;;;;;4.33;2.73;;;;;;;2.44;76.80;94441.81;5019755;28;20237;-70
2023/03/28 04:34:02;;;;;;;4.10;2.80;;;;;;;2.62;76.49;94440.69;5008670;28;20620;-71
2023/03/28 04:36:28;;;;;;;3.13;2.80;;;;;;;2.53;75.71;94433.91;5014715;28;20237;-72
2023/03/28 04:38:57;;;;;;;3.03;2.73;;;;;;;2.53;75.97;94449.41;5004786;28;20280;-71
2023/03/28 04:41:24;;;;;;;3.20;2.70;;;;;;;2.41;75.86;94453.28;4995328;28;20309;-72
2023/03/28 04:43:50;;;;;;;3.27;2.70;;;;;;;2.52;76.42;94468.47;4996667;28;20226;-71
2023/03/28 04:46:15;;;;;;;6.13;3.10;;;;;;;2.50;73.84;94478.16;5009919;28;21196;-71
2023/03/28 04:48:41;;;;;;;4.07;2.90;;;;;;;2.48;74.09;94485.25;5009218;28;20249;-71
2023/03/28 04:51:07;;;;;;;4.67;3.37;;;;;;;2.54;73.45;94500.09;4992950;28;20283;-71
2023/03/28 04:53:35;;;;;;;5.20;3.90;;;;;;;2.58;72.58;94496.22;5012962;28;20353;-72
2023/03/28 04:56:00;;;;;;;6.50;3.83;;;;;;;2.67;72.42;94505.56;5010875;28;20299;-72
2023/03/28 04:58:26;;;;;;;7.47;4.57;;;;;;;2.58;72.02;94522.03;4995916;28;20246;-72
2023/03/28 05:00:52;;;;;;;6.70;4.67;;;;;;;2.48;71.63;94511.09;5027702;28;20669;-72
2023/03/28 05:03:22;;;;;;;9.03;5.23;;;;;;;2.37;72.25;94526.88;5010853;28;20237;-72
2023/03/28 05:05:48;;;;;;;8.87;5.73;;;;;;;2.54;72.11;94518.16;5001385;28;20288;-70
2023/03/28 05:08:15;;;;;;;7.40;5.70;;;;;;;2.57;71.96;94507.53;5004346;28;20727;-69
2023/03/28 05:10:40;;;;;;;7.50;5.40;;;;;;;2.70;71.97;94527.69;4978409;28;20313;-71
2023/03/28 05:13:06;;;;;;;8.53;5.57;;;;;;;2.83;71.22;94537.53;4992229;28;20300;-70
2023/03/28 05:15:31;;;;;;;7.80;5.47;;;;;;;2.50;71.38;94532.38;5002135;28;20236;-69
2023/03/28 05:17:57;;;;;;;9.63;5.90;;;;;;;2.49;71.56;94522.19;4997923;28;20762;-70
2023/03/28 05:20:23;;;;;;;8.13;5.50;;;;;;;2.50;72.13;94514.31;5009184;28;20241;-70
2023/03/28 05:22:49;;;;;;;11.07;5.73;;;;;;;2.64;71.54;94505.09;5029993;28;20240;-70
2023/03/28 05:25:16;;;;;;;9.07;5.80;;;;;;;2.54;70.84;94499.28;5025530;28;20241;-70
2023/03/28 05:27:42;;;;;;;8.53;5.30;;;;;;;2.59;71.48;94507.34;5025503;28;20295;-70
2023/03/28 05:30:09;;;;;;;7.77;5.50;;;;;;;2.50;71.18;94516.88;5010111;28;20225;-70
2023/03/28 05:32:34;;;;;;;7.70;5.40;;;;;;;2.52;71.04;94514.94;5007612;28;20676;-70
2023/03/28 05:35:00;;;;;;;10.20;5.27;;;;;;;2.38;71.32;94519.94;5006790;28;20230;-70
2023/03/28 05:37:25;;;;;;;7.20;5.40;;;;;;;2.47;71.06;94519.78;5025747;28;20229;-70
2023/03/28 05:39:51;;;;;;;7.43;5.33;;;;;;;2.41;71.07;94533.31;5027228;28;20595;-70
2023/03/28 05:42:16;;;;;;;7.03;5.27;;;;;;;2.47;70.86;94537.03;5030513;28;20229;-71
2023/03/28 05:44:42;;;;;;;8.70;5.47;;;;;;;2.38;70.76;94541.41;5011679;28;20244;-74
2023/03/28 05:47:08;;;;;;;8.83;5.60;;;;;;;2.43;70.56;94543.50;5023822;28;20367;-75
2023/03/28 05:49:33;;;;;;;7.57;5.20;;;;;;;2.58;70.17;94555.63;5011094;28;20222;-74
2023/03/28 05:51:59;;;;;;;8.77;5.77;;;;;;;2.57;69.91;94564.34;4996041;28;20218;-74
2023/03/28 05:54:24;;;;;;;8.77;5.17;;;;;;;2.50;69.99;94560.78;5033530;28;20261;-74
2023/03/28 05:56:50;;;;;;;7.17;5.60;;;;;;;2.48;70.07;94554.16;4999159;28;20249;-74
2023/03/28 05:59:17;;;;;;;9.70;6.20;;;;;;;2.45;70.28;94567.38;5012228;28;20233;-73
2023/03/28 06:01:45;;;;;;;6.97;5.70;;;;;;;2.22;70.08;94577.47;5026685;28;20344;-74
2023/03/28 06:04:11;;;;;;;13.20;5.73;;;;;;;2.40;70.10;94560.13;5034668;28;20845;-74
2023/03/28 06:06:37;;;;;;;8.30;5.93;;;;;;;2.35;70.14;94561.56;5023767;28;20292;-74
2023/03/28 06:09:02;;;;;;;9.77;6.40;;;;;;;2.38;69.97;94564.63;5025443;28;20248;-75
2023/03/28 06:11:28;;;;;;;12.03;7.10;;;;;;;2.50;69.86;94591.78;5030356;28;20261;-74
2023/03/28 06:13:53;;;;;;;10.90;6.80;;;;;;;2.49;69.29;94577.22;5031160;28;20872;-76
2023/03/28 06:16:22;;;;;;;9.23;5.70;;;;;;;2.42;69.30;94593.53;5017250;28;20288;-75
2023/03/28 06:18:47;;;;;;;9.10;5.80;;;;;;;2.34;68.98;94565.91;5034718;28;20233;-75
2023/03/28 06:21:13;;;;;;;8.87;5.50;;;;;;;2.40;68.80;94588.53;5030968;28;20264;-74
2023/03/28 06:23:38;;;;;;;10.30;5.60;;;;;;;2.54;68.79;94597.41;5031369;28;20249;-74
2023/03/28 06:26:04;;;;;;;7.80;5.60;;;;;;;2.48;68.43;94587.75;5017168;28;20238;-74
2023/03/28 06:28:29;;;;;;;9.30;5.20;;;;;;;2.47;67.32;94579.19;5003592;28;20237;-74
2023/03/28 06:30:55;;;;;;;9.40;5.63;;;;;;;2.56;66.44;94596.28;5013548;28;20245;-75
2023/03/28 06:33:20;;;;;;;8.23;5.87;;;;;;;2.50;67.64;94581.44;5001142;28;20326;-75
2023/03/28 06:35:46;;;;;;;9.33;5.73;;;;;;;2.52;68.19;94607.09;5047645;28;20226;-75
2023/03/28 06:38:11;;;;;;;14.30;6.60;;;;;;;2.73;68.46;94592.78;5015190;28;20242;-75
2023/03/28 06:40:37;;;;;;;11.10;5.63;;;;;;;2.77;67.71;94610.53;5016820;28;21158;-74
2023/03/28 06:43:02;;;;;;;8.63;5.40;;;;;;;2.47;68.16;94617.09;5020768;28;20323;-75
2023/03/28 06:45:28;;;;;;;7.57;5.27;;;;;;;2.55;67.39;94630.03;4999554;28;20258;-76
2023/03/28 06:47:53;;;;;;;10.63;5.53;;;;;;;2.38;69.03;94618.03;5007894;28;20770;-73
2023/03/28 06:50:19;;;;;;;8.83;5.63;;;;;;;2.61;68.48;94621.66;5014340;28;20599;-75
2023/03/28 06:52:45;;;;;;;9.90;5.93;;;;;;;2.65;68.08;94620.38;5014843;28;20679;-74
2023/03/28 06:55:10;;;;;;;8.60;5.40;;;;;;;2.71;67.73;94614.56;5015066;28;20332;-75
2023/03/28 06:57:36;;;;;;;8.37;5.50;;;;;;;2.77;67.39;94620.88;5018055;28;20230;-75
2023/03/28 07:00:02;;;;;;;9.27;5.60;;;;;;;2.98;67.17;94631.56;5025463;28;20247;-75
2023/03/28 07:02:27;;;;;;;6.63;5.30;;;;;;;2.52;67.50;94618.25;4994358;28;20234;-74
2023/03/28 07:04:54;;;;;;;8.53;5.50;;;;;;;2.57;67.66;94617.78;5011196;28;20284;-74
2023/03/28 07:07:21;;;;;;;7.50;5.40;;;;;;;2.44;67.61;94646.63;5017662;28;20303;-74
2023/03/28 07:09:48;;;;;;;7.27;5.33;;;;;;;2.57;66.92;94636.66;4988065;28;20238;-74
2023/03/28 07:12:14;;;;;;;8.10;5.50;;;;;;;2.65;67.45;94635.88;4987611;28;20239;-76
2023/03/28 07:14:43;;;;;;;8.67;5.27;;;;;;;2.71;67.20;94635.22;5004206;28;20231;-75
2023/03/28 07:17:09;;;;;;;8.27;5.50;;;;;;;2.77;66.52;94660.41;4983492;28;20912;-74
2023/03/28 07:19:35;;;;;;;7.47;4.90;;;;;;;3.05;65.79;94650.63;5022648;28;20229;-75
2023/03/28 07:22:00;;;;;;;8.43;5.13;;;;;;;3.06;65.66;94667.72;5000151;28;20213;-74
2023/03/28 07:24:26;;;;;;;8.80;5.70;;;;;;;3.33;65.54;94664.84;5031187;28;20300;-75
2023/03/28 07:26:51;;;;;;;7.43;5.40;;;;;;;3.39;65.37;94667.59;5028884;28;20238;-74
2023/03/28 07:29:17;;;;;;;8.37;5.07;;;;;;;3.23;65.77;94677.13;5032385;28;20277;-74
2023/03/28 07:31:42;;;;;;;9.23;5.37;;;;;;;3.08;65.18;94669.19;5019229;28;20222;-76
2023/03/28 07:34:08;;;;;;;7.50;4.97;;;;;;;3.06;65.74;94662.56;5015750;28;20325;-73
2023/03/28 07:36:33;;;;;;;8.33;5.57;;;;;;;3.39;65.31;94698.63;4994717;28;20233;-75
2023/03/28 07:38:59;;;;;;;8.70;5.30;;;;;;;3.17;64.34;94688.13;5008800;28;20615;-75
2023/03/28 07:41:25;;;;;;;10.40;5.27;;;;;;;3.38;64.31;94688.44;4993967;28;20633;-74
2023/03/28 07:43:50;;;;;;;9.73;5.63;;;;;;;3.54;64.34;94687.63;5015278;28;20242;-75
2023/03/28 07:46:16;;;;;;;8.40;5.10;;;;;;;3.56;63.37;94688.31;5000590;28;20877;-75
2023/03/28 07:48:41;;;;;;;7.67;5.17;;;;;;;3.81;63.39;94701.03;5015039;28;20226;-73
2023/03/28 07:51:08;;;;;;;8.40;5.30;;;;;;;3.53;63.64;94696.38;5022601;28;20230;-73
2023/03/28 07:53:34;;;;;;;7.77;5.10;;;;;;;3.45;63.52;94711.88;5018193;28;20291;-74
2023/03/28 07:55:59;;;;;;;7.27;4.90;;;;;;;3.17;64.67;94682.94;5003660;28;20868;-74
2023/03/28 07:58:25;;;;;;;8.57;4.90;;;;;;;3.04;63.56;94682.59;5026740;28;20321;-74
2023/03/28 08:00:50;;;;;;;9.33;4.80;;;;;;;3.10;63.86;94681.97;5039222;28;20229;-73
2023/03/28 08:03:17;;;;;;;11.83;5.20;;;;;;;3.18;63.66;94695.72;5016698;28;20745;-73
2023/03/28 08:05:50;;;;;;;8.37;4.93;;;;;;;3.26;63.46;94689.75;5015094;28;20238;-74
2023/03/28 08:08:16;;;;;;;7.53;5.10;;;;;;;3.37;63.29;94687.63;5020267;28;20261;-74
2023/03/28 08:10:44;;;;;;;11.30;5.07;;;;;;;3.18;63.59;94707.81;5018083;28;20308;-74
2023/03/28 08:13:09;;;;;;;7.23;4.70;;;;;;;3.02;63.91;94720.72;5017974;28;20737;-75
2023/03/28 08:15:35;;;;;;;9.57;4.77;;;;;;;3.09;63.48;94711.38;5018076;28;20234;-74
2023/03/28 08:18:01;;;;;;;9.50;5.50;;;;;;;3.34;63.67;94710.44;5002483;28;21038;-74
2023/03/28 08:20:26;;;;;;;11.20;5.40;;;;;;;3.24;63.56;94714.94;5018191;28;20242;-74
2023/03/28 08:22:51;;;;;;;8.03;5.20;;;;;;;3.33;63.71;94719.97;5017174;28;20853;-74
2023/03/28 08:25:17;;;;;;;9.53;5.07;;;;;;;3.41;63.22;94725.13;5012233;28;20241;-74
2023/03/28 08:27:42;;;;;;;6.70;4.80;;;;;;;3.44;63.22;94707.69;5050444;28;20260;-74
2023/03/28 08:30:09;;;;;;;10.47;4.80;;;;;;;3.68;63.88;94713.66;5035164;28;20933;-75
2023/03/28 08:32:34;;;;;;;7.70;4.80;;;;;;;3.65;63.81;94720.97;5000551;28;20268;-73
2023/03/28 08:35:01;;;;;;;7.77;5.07;;;;;;;3.60;64.54;94724.03;5021363;28;20710;-74
2023/03/28 08:37:28;;;;;;;7.07;5.10;;;;;;;3.74;63.56;94727.75;5025515;28;20241;-74
2023/03/28 08:39:54;;;;;;;7.90;4.80;;;;;;;3.72;63.45;94732.28;5032170;28;20264;-74
2023/03/28 08:42:42;;;;;;;9.57;4.70;;;;;;;3.73;63.15;94726.91;5014061;28;20643;-75
2023/03/28 08:45:10;;;;;;;8.00;4.90;;;;;;;4.12;62.31;94742.59;5025777;28;20222;-74
2023/03/28 08:47:59;;;;;;;8.30;5.00;;;;;;;3.85;61.40;94742.94;5034548;28;20722;-75
2023/03/28 08:50:35;;;;;;;9.23;4.80;;;;;;;4.01;61.99;94746.31;5021252;28;20787;-73
2023/03/28 08:53:01;;;;;;;9.07;4.57;;;;;;;3.78;62.03;94752.31;5009440;28;20248;-76
2023/03/28 08:55:40;;;;;;;8.80;4.70;;;;;;;3.76;62.08;94768.00;5015149;28;20665;-74
2023/03/28 08:58:09;;;;;;;7.83;4.70;;;;;;;3.83;62.69;94768.16;5007669;28;20229;-75
2023/03/28 09:00:37;;;;;;;10.47;5.20;;;;;;;3.66;62.84;94762.19;5012061;28;20245;-74
2023/03/28 09:03:13;;;;;;;9.80;4.80;;;;;;;3.93;62.44;94755.88;5001333;28;20326;-75
2023/03/28 09:05:45;;;;;;;7.70;5.03;;;;;;;4.11;62.30;94766.84;5004635;28;20233;-74
2023/03/28 09:08:26;;;;;;;9.17;5.40;;;;;;;4.14;61.93;94768.31;5025569;28;20245;-74
2023/03/28 09:11:22;;;;;;;10.10;5.30;;;;;;;4.19;61.68;94779.78;5029093;28;20252;-74
2023/03/28 09:13:47;;;;;;;8.87;5.67;;;;;;;4.40;61.62;94776.66;5032214;28;20245;-74
2023/03/28 09:16:18;;;;;;;8.80;5.33;;;;;;;4.18;61.83;94767.81;5031792;28;20695;-74
2023/03/28 09:19:06;;;;;;;6.43;4.47;;;;;;;3.95;62.36;94793.56;5016885;28;20813;-76
2023/03/28 09:21:36;;;;;;;6.43;4.43;;;;;;;4.05;62.28;94783.88;5033458;28;20295;-73
2023/03/28 09:24:17;;;;;;;9.17;4.70;;;;;;;4.23;61.37;94798.41;5015394;28;20230;-74
2023/03/28 09:26:50;;;;;;;8.80;5.00;;;;;;;3.69;63.94;94774.00;5046319;28;20942;-74
2023/03/28 09:29:19;;;;;;;7.50;5.00;;;;;;;3.99;64.43;94788.88;5005945;28;20226;-74
2023/03/28 09:31:50;;;;;;;15.40;5.40;;;;;;;4.06;63.95;94806.19;5018928;28;20234;-75
2023/03/28 09:34:29;;;;;;;9.50;4.90;;;;;;;3.79;64.16;94797.94;5029079;28;20241;-75
2023/03/28 09:36:58;;;;;;;9.10;5.10;;;;;;;4.21;64.22;94808.09;5009175;28;20672;-75
2023/03/28 09:39:43;;;;;;;9.90;5.00;;;;;;;4.21;63.41;94783.03;5008356;28;20281;-75
2023/03/28 09:42:14;;;;;;;9.60;5.20;;;;;;;4.14;64.37;94796.78;5020153;28;20260;-75
2023/03/28 09:44:46;;;;;;;8.77;4.90;;;;;;;4.36;63.64;94790.94;5029723;28;20742;-75
2023/03/28 09:47:12;;;;;;;7.83;4.90;;;;;;;4.14;63.81;94791.59;5027196;28;20234;-74
2023/03/28 09:49:37;;;;;;;6.93;4.80;;;;;;;4.07;63.38;94792.28;5029589;28;20236;-75
2023/03/28 09:52:17;;;;;;;7.03;4.47;;;;;;;4.02;62.59;94799.72;5017261;28;20628;-75
2023/03/28 09:54:43;;;;;;;10.60;4.93;;;;;;;4.53;62.17;94788.16;5012251;28;20272;-74
2023/03/28 09:57:08;;;;;;;18.30;5.90;;;;;;;4.89;60.96;94793.72;5015444;28;20234;-73
2023/03/28 09:59:34;;;;;;;18.63;5.67;;;;;;;5.13;59.82;94780.66;4999836;28;20237;-73
2023/03/28 10:02:02;;;;;;;18.93;5.63;;;;;;;4.97;60.31;94779.91;5016260;28;20233;-74
2023/03/28 10:04:27;;;;;;;8.03;4.70;;;;;;;4.53;61.05;94798.53;5006985;28;20230;-74
2023/03/28 10:06:55;;;;;;;10.40;5.37;;;;;;;4.64;61.47;94792.97;5034623;28;20235;-75
2023/03/28 10:09:25;;;;;;;8.13;4.83;;;;;;;4.65;61.25;94802.38;5007946;28;20239;-74
2023/03/28 10:11:55;;;;;;;10.10;5.00;;;;;;;4.98;59.12;94797.06;5014033;28;20316;-74
2023/03/28 10:14:46;;;;;;;8.00;4.80;;;;;;;4.99;58.79;94796.09;5012851;28;20229;-74
2023/03/28 10:17:17;;;;;;;8.67;4.80;;;;;;;5.50;55.92;94799.88;5026867;28;20712;-74
2023/03/28 10:19:44;;;;;;;6.97;4.17;;;;;;;5.42;55.89;94793.75;4996922;28;20264;-74
2023/03/28 10:22:24;;;;;;;10.07;5.00;;;;;;;5.39;56.17;94791.53;5031820;28;20217;-75
2023/03/28 10:24:49;;;;;;;7.53;4.40;;;;;;;5.42;55.15;94783.38;5022079;28;20291;-75
2023/03/28 10:27:22;;;;;;;8.80;4.57;;;;;;;4.94;56.26;94788.03;5005763;28;20230;-74
2023/03/28 10:29:48;;;;;;;8.57;4.67;;;;;;;4.95;56.84;94802.59;5031333;28;20261;-73
2023/03/28 10:32:28;;;;;;;7.43;4.60;;;;;;;4.81;57.14;94805.88;5033928;28;20230;-73
2023/03/28 10:34:59;;;;;;;9.53;4.20;;;;;;;4.47;57.75;94817.31;5020183;28;20316;-74
2023/03/28 10:37:25;;;;;;;7.40;4.50;;;;;;;4.47;58.33;94824.25;5013846;28;20287;-75
2023/03/28 10:40:22;;;;;;;7.00;4.17;;;;;;;4.79;56.52;94816.44;4996946;28;20233;-74
2023/03/28 10:42:49;;;;;;;9.37;4.03;;;;;;;4.88;56.91;94812.81;5030327;28;20234;-74
2023/03/28 10:45:22;;;;;;;10.07;4.67;;;;;;;5.39;57.23;94817.47;5046149;28;20256;-73
2023/03/28 10:47:49;;;;;;;5.60;4.03;;;;;;;5.31;56.58;94799.34;5031210;28;20610;-74
2023/03/28 10:50:20;;;;;;;6.67;4.17;;;;;;;4.94;57.74;94806.97;5027324;28;20230;-72
2023/03/28 10:53:04;;;;;;;6.83;4.10;;;;;;;4.58;58.62;94813.56;5005582;28;20256;-75
2023/03/28 10:55:32;;;;;;;7.33;4.30;;;;;;;4.33;59.79;94810.19;5029074;28;20266;-76
2023/03/28 10:58:16;;;;;;;5.33;4.30;;;;;;;4.59;60.04;94805.63;5011577;28;20248;-74
2023/03/28 11:00:45;;;;;;;7.37;4.77;;;;;;;5.12;59.17;94810.13;5047431;28;20338;-75
2023/03/28 11:03:25;;;;;;;8.47;4.50;;;;;;;5.33;57.81;94806.94;5002023;28;20230;-75
2023/03/28 11:06:01;;;;;;;7.83;4.77;;;;;;;6.14;56.14;94793.47;5032143;28;20315;-73
2023/03/28 11:08:41;;;;;;;8.67;4.80;;;;;;;6.29;55.04;94818.50;5018957;28;20237;-74
2023/03/28 11:11:20;;;;;;;7.50;4.40;;;;;;;5.67;55.19;94809.19;4997730;28;20289;-74
2023/03/28 11:14:01;;;;;;;6.67;4.60;;;;;;;5.36;56.90;94810.03;5001122;28;20276;-73
2023/03/28 11:16:42;;;;;;;7.60;4.27;;;;;;;5.55;55.62;94810.56;4998151;28;20306;-74
2023/03/28 11:19:29;;;;;;;6.17;4.53;;;;;;;5.01;57.06;94818.31;5024936;28;20317;-74
2023/03/28 11:22:19;;;;;;;7.93;4.40;;;;;;;5.41;56.23;94796.53;5026849;28;20830;-75
2023/03/28 11:24:48;;;;;;;11.83;4.80;;;;;;;5.40;57.02;94820.84;5046477;28;20715;-74
2023/03/28 11:27:39;;;;;;;7.80;4.60;;;;;;;5.02;56.32;94809.53;5029561;28;20234;-73
2023/03/28 11:30:09;;;;;;;5.70;4.40;;;;;;;5.56;54.53;94807.00;5028436;28;20320;-73
2023/03/28 11:32:50;;;;;;;11.33;4.90;;;;;;;6.10;52.80;94824.16;5025430;28;20241;-74
2023/03/28 11:35:56;;;;;;;6.53;4.30;;;;;;;6.00;51.81;94797.63;5022124;28;20256;-73
2023/03/28 11:38:26;;;;;;;8.10;5.20;;;;;;;5.76;52.84;94789.97;5004628;28;20755;-75
2023/03/28 11:41:00;;;;;;;7.17;4.40;;;;;;;5.57;53.31;94808.59;5008595;28;20329;-74
2023/03/28 11:43:32;;;;;;;7.77;4.67;;;;;;;5.39;52.22;94791.53;5013628;28;20513;-74
2023/03/28 11:46:14;;;;;;;8.93;4.77;;;;;;;5.81;52.03;94817.03;4988985;28;20234;-74
2023/03/28 11:48:49;;;;;;;5.83;4.20;;;;;;;5.73;50.82;94808.50;5006158;28;20459;-74
2023/03/28 11:51:24;;;;;;;8.17;4.13;;;;;;;5.82;50.89;94812.66;5011195;28;20708;-75
2023/03/28 11:53:54;;;;;;;7.70;4.33;;;;;;;5.69;50.31;94795.06;5029847;28;20641;-74
2023/03/28 11:56:47;;;;;;;8.27;4.30;;;;;;;5.94;49.79;94795.72;5006240;28;20233;-75